Time;durP1;ratioP1;P1;durP2;ratioP2;P2;SDS_P1;SDS_P2;PMS_P1;PMS_P2;Temp;Humidity;BMP_temperature;BMP_pressure;BME280_temperature;BME280_humidity;BME280_pressure;Samples;Min_cycle;Max_cycle;Signal;HPM_P1;HPM_P2
2021/12/31 00:02:13;;;;;;;9.40;4.30;;;;;;;12.64;100.00;98194.78;4963722;28;20027;-88
2021/12/31 00:04:39;;;;;;;13.30;4.20;;;;;;;12.63;100.00;98200.25;4964661;28;20065;-89
2021/12/31 00:07:04;;;;;;;12.63;5.35;;;;;;;12.40;100.00;98183.44;4949677;28;20030;-89
2021/12/31 00:09:30;;;;;;;9.48;4.75;;;;;;;12.52;100.00;98196.59;4951851;28;20033;-89
2021/12/31 00:11:56;;;;;;;10.02;4.38;;;;;;;12.41;100.00;98201.63;4965956;28;20034;-89
2021/12/31 00:14:22;;;;;;;10.57;4.57;;;;;;;12.34;100.00;98177.25;4954372;28;20117;-89
2021/12/31 00:16:49;;;;;;;14.45;4.90;;;;;;;12.49;100.00;98199.69;4950319;28;20038;-88
2021/12/31 00:19:15;;;;;;;7.25;3.90;;;;;;;12.49;100.00;98233.91;4965033;28;20061;-89
2021/12/31 00:21:45;;;;;;;10.73;4.05;;;;;;;12.46;100.00;98218.56;4959334;28;20105;-89
2021/12/31 00:24:11;;;;;;;8.93;3.85;;;;;;;12.48;100.00;98206.81;4991081;28;20125;-90
2021/12/31 00:26:36;;;;;;;9.85;4.20;;;;;;;12.53;100.00;98214.00;4949089;28;20054;-88
2021/12/31 00:29:02;;;;;;;11.82;4.20;;;;;;;12.46;100.00;98203.56;4961850;28;20035;-89
2021/12/31 00:31:28;;;;;;;15.82;3.85;;;;;;;12.52;100.00;98175.53;4965350;28;20117;-88
2021/12/31 00:33:54;;;;;;;14.23;4.43;;;;;;;12.49;100.00;98191.78;4987690;28;20026;-89
2021/12/31 00:36:20;;;;;;;8.32;3.47;;;;;;;12.38;100.00;98183.69;4966106;28;20085;-88
2021/12/31 00:38:46;;;;;;;14.63;4.13;;;;;;;12.34;100.00;98190.41;4951160;28;20034;-89
2021/12/31 00:41:12;;;;;;;13.55;3.75;;;;;;;12.35;100.00;98196.47;4948248;28;20060;-90
2021/12/31 00:43:38;;;;;;;12.98;3.70;;;;;;;12.22;100.00;98193.00;4968486;28;20026;-87
2021/12/31 00:46:04;;;;;;;10.43;4.07;;;;;;;12.25;100.00;98197.03;4946109;28;20374;-84
2021/12/31 00:48:30;;;;;;;9.80;3.83;;;;;;;12.22;100.00;98219.31;4985903;28;20026;-89
2021/12/31 00:50:56;;;;;;;6.80;3.55;;;;;;;12.17;100.00;98245.50;4948138;28;20034;-88
2021/12/31 00:53:23;;;;;;;18.23;4.10;;;;;;;12.19;100.00;98219.00;4951607;28;20088;-88
2021/12/31 00:55:49;;;;;;;14.27;3.92;;;;;;;12.17;100.00;98210.50;4949858;28;20047;-88
2021/12/31 00:58:15;;;;;;;16.35;4.32;;;;;;;12.17;100.00;98199.97;4950256;28;20030;-90
2021/12/31 01:00:41;;;;;;;11.10;4.40;;;;;;;12.25;100.00;98203.06;4988037;28;20042;-89
2021/12/31 01:03:07;;;;;;;8.77;3.75;;;;;;;12.27;100.00;98179.97;4948302;28;20095;-88
2021/12/31 01:05:34;;;;;;;14.05;3.92;;;;;;;12.35;100.00;98192.00;4950624;28;20035;-88
2021/12/31 01:07:59;;;;;;;14.32;5.15;;;;;;;12.28;100.00;98178.16;4951158;28;20094;-89
2021/12/31 01:10:27;;;;;;;10.65;3.53;;;;;;;12.26;100.00;98182.84;4963211;28;20062;-87
2021/12/31 01:12:53;;;;;;;12.88;4.07;;;;;;;12.14;100.00;98180.97;4963262;28;20080;-87
2021/12/31 01:15:23;;;;;;;9.35;3.92;;;;;;;12.16;100.00;98214.97;4942711;28;20026;-86
2021/12/31 01:20:17;;;;;;;7.90;3.85;;;;;;;12.12;100.00;98201.44;4960909;28;20137;-88
2021/12/31 01:22:43;;;;;;;11.35;3.90;;;;;;;12.07;100.00;98169.78;4972069;28;20037;-88
2021/12/31 01:25:09;;;;;;;14.45;3.97;;;;;;;12.12;100.00;98175.16;4990118;28;20059;-90
2021/12/31 01:27:36;;;;;;;12.13;4.20;;;;;;;12.22;100.00;98182.47;4988780;28;20117;-90
2021/12/31 01:30:04;;;;;;;13.07;5.10;;;;;;;12.16;100.00;98179.94;4986768;28;20041;-89
2021/12/31 01:32:31;;;;;;;15.57;3.60;;;;;;;12.23;100.00;98172.78;4942227;28;20027;-86
2021/12/31 01:34:57;;;;;;;14.63;4.30;;;;;;;12.25;100.00;98184.66;4964931;28;20023;-88
2021/12/31 01:37:24;;;;;;;18.92;4.50;;;;;;;12.31;100.00;98190.84;4964149;28;20030;-86
2021/12/31 01:39:49;;;;;;;12.52;3.80;;;;;;;12.36;100.00;98187.56;4949624;28;20069;-88
2021/12/31 01:42:17;;;;;;;14.30;3.60;;;;;;;12.28;100.00;98165.00;4965603;28;20031;-89
2021/12/31 01:44:56;;;;;;;19.05;4.80;;;;;;;12.38;100.00;98196.84;4966748;28;20038;-88
2021/12/31 01:47:26;;;;;;;18.13;4.20;;;;;;;12.44;100.00;98197.72;4990115;28;20527;-91
2021/12/31 01:49:58;;;;;;;16.83;3.88;;;;;;;12.42;100.00;98184.81;4964389;28;20022;-86
2021/12/31 01:52:24;;;;;;;16.33;3.70;;;;;;;12.41;100.00;98201.63;4963867;28;20030;-86
2021/12/31 01:54:51;;;;;;;17.02;4.30;;;;;;;12.37;100.00;98199.69;4988706;28;20076;-88
2021/12/31 01:57:18;;;;;;;14.48;4.20;;;;;;;12.45;100.00;98206.44;4962095;28;20031;-87
2021/12/31 01:59:45;;;;;;;11.18;4.40;;;;;;;12.46;100.00;98197.50;4963107;28;20088;-87
2021/12/31 02:02:11;;;;;;;12.10;4.18;;;;;;;12.36;100.00;98193.59;4982193;28;20034;-87
2021/12/31 02:04:39;;;;;;;16.90;4.25;;;;;;;12.43;100.00;98202.22;4962036;28;20464;-86
2021/12/31 02:07:06;;;;;;;13.27;4.18;;;;;;;12.49;100.00;98207.59;4988010;28;20632;-88
2021/12/31 02:09:37;;;;;;;16.42;4.22;;;;;;;12.31;100.00;98196.13;4959177;28;20041;-87
2021/12/31 02:12:03;;;;;;;15.63;3.75;;;;;;;12.43;100.00;98220.63;4944482;28;20038;-88
2021/12/31 02:14:30;;;;;;;19.23;4.80;;;;;;;12.46;100.00;98224.63;4963330;28;20408;-88
2021/12/31 02:16:56;;;;;;;11.85;4.15;;;;;;;12.55;100.00;98217.19;4945660;28;20019;-88
2021/12/31 02:19:28;;;;;;;12.50;3.75;;;;;;;12.49;100.00;98195.25;4963783;28;20560;-87
2021/12/31 02:21:55;;;;;;;16.05;4.10;;;;;;;12.67;100.00;98225.09;4963269;28;20039;-89
2021/12/31 02:24:22;;;;;;;13.38;4.20;;;;;;;12.72;100.00;98212.06;4962966;28;20030;-86
2021/12/31 02:26:48;;;;;;;15.55;4.05;;;;;;;12.89;100.00;98211.38;4964391;28;20038;-87
2021/12/31 02:29:13;;;;;;;13.00;3.83;;;;;;;12.86;100.00;98218.69;4950299;28;20057;-89
2021/12/31 02:31:39;;;;;;;12.15;4.22;;;;;;;12.75;100.00;98200.25;4961158;28;20054;-86
2021/12/31 02:34:04;;;;;;;13.82;3.65;;;;;;;12.82;100.00;98211.50;4962999;28;20400;-87
2021/12/31 02:36:30;;;;;;;14.80;3.90;;;;;;;12.79;100.00;98227.75;4963647;28;20026;-87
2021/12/31 02:38:55;;;;;;;10.52;4.18;;;;;;;12.84;100.00;98231.28;4965147;28;20128;-90
2021/12/31 02:41:21;;;;;;;18.02;4.72;;;;;;;12.79;100.00;98233.03;4987138;28;20023;-87
2021/12/31 02:43:47;;;;;;;14.20;4.63;;;;;;;12.97;100.00;98230.28;4987511;28;20037;-88
2021/12/31 02:46:12;;;;;;;12.93;4.38;;;;;;;13.06;100.00;98228.06;4963969;28;20031;-89
2021/12/31 02:48:38;;;;;;;13.30;3.58;;;;;;;13.03;100.00;98218.00;4963888;28;20035;-89
2021/12/31 02:51:06;;;;;;;14.02;4.05;;;;;;;13.15;100.00;98210.06;4987837;28;20145;-90
2021/12/31 02:53:32;;;;;;;20.55;5.40;;;;;;;13.16;100.00;98219.59;4963627;28;20030;-88
2021/12/31 02:56:07;;;;;;;11.43;3.72;;;;;;;13.03;100.00;98215.38;4950303;28;20038;-90
2021/12/31 02:58:33;;;;;;;15.57;4.47;;;;;;;12.96;100.00;98207.56;4965365;28;20038;-89
2021/12/31 03:00:59;;;;;;;19.38;4.45;;;;;;;13.04;100.00;98221.44;4967520;28;20101;-90
2021/12/31 03:03:24;;;;;;;17.60;5.00;;;;;;;13.01;100.00;98233.25;4949023;28;20026;-89
2021/12/31 03:05:53;;;;;;;18.67;4.32;;;;;;;12.92;100.00;98250.44;4965050;28;20031;-89
2021/12/31 03:08:23;;;;;;;10.35;3.85;;;;;;;12.83;100.00;98244.72;4966605;28;20038;-90
2021/12/31 03:10:49;;;;;;;15.32;4.07;;;;;;;12.74;100.00;98246.06;4968783;28;20038;-88
2021/12/31 03:13:16;;;;;;;15.07;4.20;;;;;;;12.60;100.00;98240.22;4951460;28;20037;-89
2021/12/31 03:15:42;;;;;;;13.35;4.60;;;;;;;12.48;100.00;98232.31;4945718;29;20031;-90
2021/12/31 03:18:10;;;;;;;16.45;5.63;;;;;;;12.42;100.00;98250.63;4965528;28;20026;-88
2021/12/31 03:20:41;;;;;;;12.80;4.35;;;;;;;12.42;100.00;98240.09;4961264;28;20114;-89
2021/12/31 03:23:07;;;;;;;19.15;5.28;;;;;;;12.43;100.00;98251.41;4945465;28;20523;-89
2021/12/31 03:25:33;;;;;;;18.52;4.75;;;;;;;12.43;100.00;98269.81;4963991;28;20113;-90
2021/12/31 03:27:59;;;;;;;24.73;5.80;;;;;;;12.36;100.00;98250.72;4970015;28;20073;-90
2021/12/31 03:30:25;;;;;;;18.10;4.85;;;;;;;12.38;100.00;98254.72;4990321;28;20027;-90
2021/12/31 03:32:52;;;;;;;12.88;4.55;;;;;;;12.38;100.00;98260.00;4988005;28;20035;-89
2021/12/31 03:35:18;;;;;;;14.80;4.38;;;;;;;12.34;100.00;98253.56;4984435;28;20045;-89
2021/12/31 03:37:44;;;;;;;15.10;4.97;;;;;;;12.34;100.00;98263.28;4991038;28;20035;-90
2021/12/31 03:40:10;;;;;;;13.98;4.53;;;;;;;12.25;100.00;98247.81;4949108;28;20486;-88
2021/12/31 03:42:36;;;;;;;17.23;5.15;;;;;;;12.30;100.00;98239.25;4966727;28;20480;-89
2021/12/31 03:45:03;;;;;;;12.48;3.83;;;;;;;12.20;100.00;98236.38;4965859;28;20026;-88
2021/12/31 03:47:29;;;;;;;12.85;5.10;;;;;;;12.30;100.00;98251.63;4949768;28;20034;-89
2021/12/31 03:49:55;;;;;;;14.25;4.65;;;;;;;12.29;100.00;98242.91;4967602;28;20159;-89
2021/12/31 03:52:21;;;;;;;13.77;4.38;;;;;;;12.32;100.00;98255.59;4957606;28;20034;-87
2021/12/31 03:54:46;;;;;;;18.23;4.70;;;;;;;12.28;100.00;98249.19;4951953;28;20059;-89
2021/12/31 03:57:12;;;;;;;14.00;4.15;;;;;;;12.33;100.00;98241.44;4963922;28;20034;-90
2021/12/31 03:59:38;;;;;;;7.97;3.30;;;;;;;12.30;100.00;98231.34;4969487;28;20034;-89
2021/12/31 04:02:03;;;;;;;13.73;4.07;;;;;;;12.34;100.00;98237.75;4996391;28;20038;-88
2021/12/31 04:04:30;;;;;;;13.00;3.85;;;;;;;12.38;100.00;98227.59;4963953;28;20393;-88
2021/12/31 04:06:55;;;;;;;13.15;3.72;;;;;;;12.32;100.00;98213.50;4961340;28;20030;-89
2021/12/31 04:09:21;;;;;;;8.57;3.35;;;;;;;12.40;100.00;98207.94;4987169;28;20492;-89
2021/12/31 04:11:47;;;;;;;10.15;4.10;;;;;;;12.38;100.00;98210.00;4963939;28;20030;-88
2021/12/31 04:14:21;;;;;;;10.32;3.45;;;;;;;12.39;100.00;98208.97;4965735;28;20035;-88
2021/12/31 04:16:52;;;;;;;12.07;3.78;;;;;;;12.32;100.00;98191.66;4946490;28;20515;-88
2021/12/31 04:19:21;;;;;;;7.65;3.13;;;;;;;12.37;100.00;98213.63;4964454;28;20034;-89
2021/12/31 04:21:49;;;;;;;7.55;3.30;;;;;;;12.37;100.00;98207.56;4966866;28;20130;-88
2021/12/31 04:24:27;;;;;;;11.02;3.33;;;;;;;12.37;100.00;98183.88;4942862;29;20042;-89
2021/12/31 04:26:53;;;;;;;5.45;3.08;;;;;;;12.34;100.00;98195.66;4927449;29;20035;-90
2021/12/31 04:29:18;;;;;;;10.15;2.92;;;;;;;12.42;100.00;98194.53;4952026;29;20509;-90
2021/12/31 04:31:44;;;;;;;9.95;3.55;;;;;;;12.31;100.00;98198.75;4950390;29;20382;-88
2021/12/31 04:34:09;;;;;;;6.28;2.70;;;;;;;12.29;100.00;98200.81;4941192;29;20050;-88
2021/12/31 04:36:35;;;;;;;6.30;2.83;;;;;;;12.24;100.00;98187.53;4948954;29;20023;-88
2021/12/31 04:39:00;;;;;;;7.82;2.90;;;;;;;12.29;100.00;98187.66;4947486;29;20058;-89
2021/12/31 04:41:26;;;;;;;8.77;3.40;;;;;;;12.31;100.00;98182.97;4943961;29;20091;-90
2021/12/31 04:43:51;;;;;;;5.68;2.83;;;;;;;12.40;100.00;98184.25;4950382;28;20039;-88
2021/12/31 04:46:17;;;;;;;6.75;3.00;;;;;;;12.40;100.00;98189.50;4960280;29;20106;-89
2021/12/31 04:48:43;;;;;;;7.80;2.63;;;;;;;12.42;100.00;98171.66;4960343;29;20375;-87
2021/12/31 04:51:09;;;;;;;6.80;2.65;;;;;;;12.46;100.00;98160.66;4951977;28;20031;-88
2021/12/31 04:53:35;;;;;;;6.60;2.35;;;;;;;12.45;100.00;98161.69;4961535;28;20083;-88
2021/12/31 04:56:02;;;;;;;9.65;2.83;;;;;;;12.39;100.00;98163.41;4927943;28;20433;-90
2021/12/31 04:58:28;;;;;;;11.68;3.20;;;;;;;12.37;100.00;98158.34;4943044;29;20468;-88
2021/12/31 05:00:53;;;;;;;7.85;2.97;;;;;;;12.38;100.00;98153.91;4940607;28;20118;-87
2021/12/31 05:03:20;;;;;;;7.60;3.03;;;;;;;12.37;100.00;98158.34;4949135;29;20035;-88
2021/12/31 05:05:45;;;;;;;7.20;2.58;;;;;;;12.49;100.00;98171.56;4926129;29;20373;-89
2021/12/31 05:08:11;;;;;;;7.07;2.40;;;;;;;12.49;100.00;98178.63;4959913;28;20107;-91
2021/12/31 05:10:37;;;;;;;8.52;2.95;;;;;;;12.30;100.00;98147.16;4935426;29;20039;-89
2021/12/31 05:13:04;;;;;;;7.18;2.40;;;;;;;12.47;100.00;98178.06;4937804;28;20041;-90
2021/12/31 05:15:35;;;;;;;7.88;2.72;;;;;;;12.49;100.00;98170.75;4961432;29;20027;-89
2021/12/31 05:18:01;;;;;;;7.40;2.85;;;;;;;12.51;100.00;98163.41;4928173;29;20119;-88
2021/12/31 05:20:28;;;;;;;7.38;2.60;;;;;;;12.58;100.00;98206.22;4942925;28;20031;-88
2021/12/31 05:22:54;;;;;;;5.22;2.63;;;;;;;12.57;100.00;98162.47;4964152;28;20482;-88
2021/12/31 05:25:21;;;;;;;7.20;1.98;;;;;;;12.66;100.00;98170.84;4982593;28;20066;-90
2021/12/31 05:27:47;;;;;;;6.70;2.55;;;;;;;12.64;100.00;98168.47;4966450;28;20034;-90
2021/12/31 05:30:13;;;;;;;6.80;2.30;;;;;;;12.64;100.00;98147.41;4963638;28;20033;-86
2021/12/31 05:32:38;;;;;;;7.72;1.90;;;;;;;12.65;100.00;98159.53;4957233;28;20042;-87
2021/12/31 05:35:05;;;;;;;9.07;2.40;;;;;;;12.76;100.00;98167.63;4963635;28;20050;-88
2021/12/31 05:37:30;;;;;;;5.90;2.22;;;;;;;12.70;100.00;98162.25;4964215;28;20035;-88
2021/12/31 05:39:55;;;;;;;6.28;2.35;;;;;;;12.70;100.00;98158.84;4979831;28;20118;-87
2021/12/31 05:42:21;;;;;;;5.82;2.25;;;;;;;12.70;100.00;98177.28;4962862;28;20038;-88
2021/12/31 05:44:48;;;;;;;6.53;2.42;;;;;;;12.65;100.00;98164.78;4962421;28;20421;-89
2021/12/31 05:47:14;;;;;;;8.38;2.95;;;;;;;12.67;100.00;98159.28;4965253;28;20033;-89
2021/12/31 05:49:40;;;;;;;3.65;2.08;;;;;;;12.53;100.00;98166.63;4964158;28;20034;-89
2021/12/31 05:52:05;;;;;;;4.97;2.42;;;;;;;12.45;100.00;98169.59;4962502;28;20031;-88
2021/12/31 05:54:31;;;;;;;5.15;2.15;;;;;;;12.32;100.00;98152.97;4961072;28;20098;-88
2021/12/31 05:56:57;;;;;;;8.57;2.42;;;;;;;12.36;100.00;98167.28;4978553;28;20031;-89
2021/12/31 05:59:23;;;;;;;6.18;2.00;;;;;;;12.32;100.00;98184.56;4946526;28;20053;-90
2021/12/31 06:01:48;;;;;;;4.70;2.00;;;;;;;12.30;100.00;98184.00;4962938;28;20121;-88
2021/12/31 06:04:14;;;;;;;8.43;2.13;;;;;;;12.39;100.00;98193.16;4978198;28;20038;-88
2021/12/31 06:06:40;;;;;;;5.05;2.10;;;;;;;12.34;100.00;98185.13;4946138;28;20469;-87
2021/12/31 06:09:07;;;;;;;5.22;2.10;;;;;;;12.32;100.00;98174.03;4978544;28;20031;-88
2021/12/31 06:11:34;;;;;;;6.32;2.33;;;;;;;12.32;100.00;98178.50;4960707;28;20027;-87
2021/12/31 06:14:03;;;;;;;5.60;2.30;;;;;;;12.32;100.00;98178.50;4961143;28;20035;-88
2021/12/31 06:16:33;;;;;;;7.05;2.38;;;;;;;12.34;100.00;98194.88;4945138;28;20490;-86
2021/12/31 06:19:02;;;;;;;8.93;2.53;;;;;;;12.43;100.00;98194.31;4961177;28;20053;-88
2021/12/31 06:21:30;;;;;;;3.60;2.28;;;;;;;12.46;100.00;98214.09;4962997;28;20485;-88
2021/12/31 06:23:56;;;;;;;9.38;2.05;;;;;;;12.43;100.00;98194.31;4959962;28;20026;-87
2021/12/31 06:26:22;;;;;;;10.43;2.65;;;;;;;12.42;100.00;98194.53;4960549;28;20027;-88
2021/12/31 06:28:47;;;;;;;4.88;2.20;;;;;;;12.44;100.00;98213.53;4960537;28;20042;-89
2021/12/31 06:31:13;;;;;;;8.85;2.30;;;;;;;12.59;100.00;98217.56;4976999;28;20462;-88
2021/12/31 06:33:38;;;;;;;6.93;3.10;;;;;;;12.47;100.00;98214.91;4978738;28;20475;-87
2021/12/31 06:36:04;;;;;;;6.55;2.38;;;;;;;12.48;100.00;98219.97;4961996;28;20477;-88
2021/12/31 06:38:31;;;;;;;7.13;2.70;;;;;;;12.63;100.00;98223.97;4979390;28;20041;-88
2021/12/31 06:40:56;;;;;;;8.52;2.17;;;;;;;12.51;100.00;98219.50;4960653;28;20406;-89
2021/12/31 06:43:25;;;;;;;6.22;2.15;;;;;;;12.56;100.00;98222.25;4947295;28;20026;-88
2021/12/31 06:45:50;;;;;;;7.18;2.17;;;;;;;12.53;100.00;98227.16;4964238;28;20033;-88
2021/12/31 06:48:16;;;;;;;10.35;2.40;;;;;;;12.55;100.00;98233.00;4962521;28;20031;-88
2021/12/31 06:50:42;;;;;;;8.27;2.22;;;;;;;12.56;100.00;98224.88;4977695;28;20545;-88
2021/12/31 06:53:07;;;;;;;7.63;2.55;;;;;;;12.56;100.00;98216.16;4958485;28;20027;-88
2021/12/31 06:55:33;;;;;;;6.80;2.03;;;;;;;12.52;100.00;98196.59;4961133;28;20035;-87
2021/12/31 06:57:59;;;;;;;10.40;2.42;;;;;;;12.43;100.00;98199.56;4959929;28;20065;-87
2021/12/31 07:00:25;;;;;;;5.78;2.53;;;;;;;12.52;100.00;98226.38;4961476;28;20031;-88
2021/12/31 07:02:51;;;;;;;7.40;2.35;;;;;;;12.50;100.00;98214.44;4962346;28;20026;-87
2021/12/31 07:05:17;;;;;;;8.55;3.03;;;;;;;12.50;100.00;98214.44;4943514;28;20034;-88
2021/12/31 07:07:43;;;;;;;8.02;3.08;;;;;;;12.48;100.00;98237.56;4944447;28;20030;-87
2021/12/31 07:10:09;;;;;;;13.30;3.15;;;;;;;12.52;100.00;98231.63;4959918;28;20118;-88
2021/12/31 07:12:35;;;;;;;8.52;2.95;;;;;;;12.55;100.00;98225.09;4976351;28;20061;-88
2021/12/31 07:15:00;;;;;;;10.07;3.40;;;;;;;12.50;100.00;98214.44;4959822;28;20030;-87
2021/12/31 07:17:28;;;;;;;8.20;3.10;;;;;;;12.42;100.00;98229.56;4943600;28;20066;-87
2021/12/31 07:19:54;;;;;;;7.43;3.50;;;;;;;12.42;100.00;98234.00;4977074;28;20478;-88
2021/12/31 07:22:21;;;;;;;13.05;3.92;;;;;;;12.43;100.00;98225.91;4944175;28;20050;-90
2021/12/31 07:24:47;;;;;;;11.30;3.40;;;;;;;12.36;100.00;98219.91;4943042;28;20392;-87
2021/12/31 07:27:12;;;;;;;9.43;3.03;;;;;;;12.44;100.00;98229.31;4974464;28;20031;-87
2021/12/31 07:29:38;;;;;;;15.18;3.80;;;;;;;12.36;100.00;98225.19;4944121;28;20030;-86
2021/12/31 07:32:04;;;;;;;12.82;3.70;;;;;;;12.30;100.00;98226.09;4959303;28;20027;-88
2021/12/31 07:34:29;;;;;;;8.85;3.35;;;;;;;12.34;100.00;98240.41;4978213;28;20493;-88
2021/12/31 07:36:55;;;;;;;8.73;3.20;;;;;;;12.33;100.00;98222.22;4956320;28;20035;-87
2021/12/31 07:39:24;;;;;;;12.13;3.30;;;;;;;12.46;100.00;98239.63;4959175;28;20085;-88
2021/12/31 07:41:50;;;;;;;9.90;3.42;;;;;;;12.36;100.00;98235.72;4974872;28;20030;-87
2021/12/31 07:44:15;;;;;;;13.00;3.35;;;;;;;12.38;100.00;98233.69;4959556;28;20030;-88
2021/12/31 07:46:43;;;;;;;10.38;3.25;;;;;;;12.42;100.00;98229.56;4958356;28;20031;-86
2021/12/31 07:49:10;;;;;;;11.88;3.53;;;;;;;12.44;100.00;98224.06;4956793;28;20038;-87
2021/12/31 07:51:36;;;;;;;11.40;3.45;;;;;;;12.41;100.00;98227.97;4943748;28;20027;-88
2021/12/31 07:54:02;;;;;;;12.77;4.10;;;;;;;12.40;100.00;98250.03;4977356;28;20069;-87
2021/12/31 07:56:28;;;;;;;8.48;3.05;;;;;;;12.32;100.00;98234.56;4959250;28;20030;-88
2021/12/31 07:58:54;;;;;;;11.82;3.20;;;;;;;12.34;100.00;98243.03;4944620;28;20389;-87
2021/12/31 08:01:19;;;;;;;8.95;3.20;;;;;;;12.37;100.00;98242.56;4977508;28;20030;-87
2021/12/31 08:03:45;;;;;;;12.82;3.40;;;;;;;12.38;100.00;98228.41;4961509;28;20039;-87
2021/12/31 08:06:11;;;;;;;8.43;3.00;;;;;;;12.24;100.00;98211.22;4948571;28;20031;-87
2021/12/31 08:08:36;;;;;;;11.95;3.55;;;;;;;12.41;100.00;98251.66;4949118;28;20041;-87
2021/12/31 08:11:02;;;;;;;9.00;3.58;;;;;;;12.38;100.00;98238.13;4960869;28;20051;-88
2021/12/31 08:13:28;;;;;;;9.57;3.83;;;;;;;12.24;100.00;98224.38;4945358;28;20030;-88
2021/12/31 08:15:54;;;;;;;9.35;2.83;;;;;;;12.35;100.00;98249.09;4944074;28;20507;-88
2021/12/31 08:18:20;;;;;;;8.48;3.28;;;;;;;12.36;100.00;98248.88;4977477;28;20374;-87
2021/12/31 08:20:46;;;;;;;6.57;3.30;;;;;;;12.23;100.00;98246.44;4947127;28;20125;-88
2021/12/31 08:23:12;;;;;;;10.05;3.65;;;;;;;12.25;100.00;98265.44;4981108;28;20556;-89
2021/12/31 08:25:39;;;;;;;9.40;3.55;;;;;;;12.25;100.00;98286.50;4948081;28;20511;-88
2021/12/31 08:28:06;;;;;;;7.45;2.90;;;;;;;12.31;100.00;98296.09;4947736;28;20031;-88
2021/12/31 08:30:31;;;;;;;11.98;3.53;;;;;;;12.25;100.00;98286.50;4963955;28;20761;-88
2021/12/31 08:33:01;;;;;;;9.80;3.20;;;;;;;12.18;100.00;98297.09;4963173;28;20027;-88
2021/12/31 08:35:27;;;;;;;6.65;2.75;;;;;;;12.27;100.00;98316.00;4945194;28;20046;-85
2021/12/31 08:37:53;;;;;;;9.35;3.13;;;;;;;12.27;100.00;98306.28;4978951;28;20452;-87
2021/12/31 08:40:20;;;;;;;7.05;2.92;;;;;;;12.17;100.00;98299.94;4963643;28;20042;-88
2021/12/31 08:42:46;;;;;;;11.13;3.35;;;;;;;12.19;100.00;98306.59;4947065;28;20039;-87
2021/12/31 08:45:13;;;;;;;3.15;2.00;;;;;;;12.26;100.00;98309.94;4965532;28;20043;-87
2021/12/31 08:47:39;;;;;;;5.43;2.00;;;;;;;12.18;100.00;98299.72;4965832;28;20085;-87
2021/12/31 08:50:05;;;;;;;9.18;2.30;;;;;;;12.23;100.00;98285.91;4966867;28;20440;-88
2021/12/31 08:52:31;;;;;;;3.75;2.08;;;;;;;12.11;100.00;98285.88;4950320;28;20030;-88
2021/12/31 08:54:56;;;;;;;3.65;1.83;;;;;;;12.20;100.00;98310.03;4969059;28;20496;-87
2021/12/31 08:57:22;;;;;;;3.55;1.88;;;;;;;12.30;100.00;98310.28;4964100;28;20035;-88
2021/12/31 08:59:48;;;;;;;3.83;1.60;;;;;;;12.22;100.00;98302.72;4971811;28;20042;-87
2021/12/31 09:02:14;;;;;;;2.65;1.70;;;;;;;12.21;100.00;98280.06;4962062;28;20480;-87
2021/12/31 09:04:39;;;;;;;3.75;1.35;;;;;;;12.39;100.00;98319.50;4978791;28;20054;-86
2021/12/31 09:07:05;;;;;;;3.75;1.58;;;;;;;12.43;100.00;98315.38;4945924;28;20038;-85
2021/12/31 09:09:31;;;;;;;4.50;1.33;;;;;;;12.38;100.00;98323.16;4959700;28;20116;-87
2021/12/31 09:11:57;;;;;;;3.50;1.70;;;;;;;12.48;100.00;98348.13;4961501;28;20085;-86
2021/12/31 09:14:23;;;;;;;4.97;1.40;;;;;;;12.39;100.00;98340.56;4966195;28;20022;-88
2021/12/31 09:16:51;;;;;;;3.55;1.40;;;;;;;12.52;100.00;98362.44;4979774;28;20433;-87
2021/12/31 09:19:17;;;;;;;2.35;1.38;;;;;;;12.36;100.00;98332.28;4946899;28;20051;-88
2021/12/31 09:21:43;;;;;;;3.22;1.00;;;;;;;12.33;100.00;98336.16;4964638;28;20047;-90
2021/12/31 09:24:08;;;;;;;1.50;0.90;;;;;;;12.68;100.00;98380.22;4964630;28;20039;-89
2021/12/31 09:26:34;;;;;;;2.00;1.00;;;;;;;12.51;100.00;98369.53;4982957;28;20054;-90
2021/12/31 09:29:01;;;;;;;2.03;0.93;;;;;;;12.58;100.00;98379.97;4963573;28;20046;-87
2021/12/31 09:31:27;;;;;;;1.33;1.00;;;;;;;12.60;100.00;98377.13;4957266;28;20027;-86
2021/12/31 09:33:52;;;;;;;1.45;0.95;;;;;;;12.50;100.00;98365.31;4978653;28;20389;-86
2021/12/31 09:36:18;;;;;;;1.92;0.75;;;;;;;12.61;100.00;98390.06;4945939;28;20481;-87
2021/12/31 09:38:44;;;;;;;1.75;0.80;;;;;;;12.64;100.00;98384.34;4961430;28;20040;-87
2021/12/31 09:41:09;;;;;;;2.42;0.90;;;;;;;12.71;100.00;98406.09;4963571;28;20127;-85
2021/12/31 09:43:38;;;;;;;2.90;0.98;;;;;;;12.75;100.00;98410.94;4949632;28;20031;-84
2021/12/31 09:46:05;;;;;;;3.78;1.38;;;;;;;12.71;100.00;98397.41;4983385;28;20050;-87
2021/12/31 09:48:34;;;;;;;4.45;1.45;;;;;;;13.00;100.00;98406.31;4967416;28;20058;-85
2021/12/31 09:51:05;;;;;;;3.00;1.70;;;;;;;12.90;100.00;98392.88;4963685;28;20026;-86
2021/12/31 09:53:31;;;;;;;6.05;2.22;;;;;;;12.98;100.00;98382.03;4950506;28;20034;-86
2021/12/31 09:55:58;;;;;;;4.18;1.77;;;;;;;13.03;100.00;98393.72;4946989;28;20042;-84
2021/12/31 09:58:25;;;;;;;4.30;1.60;;;;;;;13.09;100.00;98405.97;4962279;28;20034;-86
2021/12/31 10:00:54;;;;;;;4.78;1.75;;;;;;;13.21;100.00;98414.72;4964074;28;20046;-85
2021/12/31 10:03:29;;;;;;;8.23;2.17;;;;;;;13.22;100.00;98410.22;4977121;28;20037;-85
2021/12/31 10:05:56;;;;;;;7.07;2.08;;;;;;;13.12;100.00;98397.63;4946611;28;20485;-83
2021/12/31 10:08:23;;;;;;;10.18;1.67;;;;;;;13.12;100.00;98410.78;4945696;28;20413;-84
2021/12/31 10:11:10;;;;;;;10.82;2.05;;;;;;;13.19;100.00;98427.31;4947105;28;20027;-84
2021/12/31 10:13:51;;;;;;;8.23;1.98;;;;;;;13.17;100.00;98413.56;4956266;28;20027;-85
2021/12/31 10:16:31;;;;;;;11.70;2.53;;;;;;;13.28;100.00;98407.50;4944149;28;20520;-84
2021/12/31 10:19:21;;;;;;;14.15;2.45;;;;;;;13.26;100.00;98409.56;4946789;28;20053;-84
2021/12/31 10:21:50;;;;;;;7.75;2.35;;;;;;;13.34;100.00;98433.97;4978685;28;20061;-84
2021/12/31 10:24:32;;;;;;;12.90;3.15;;;;;;;13.29;100.00;98422.28;4945828;28;20054;-86
2021/12/31 10:27:13;;;;;;;6.72;2.10;;;;;;;13.24;100.00;98411.63;4964457;28;20045;-84
2021/12/31 10:29:54;;;;;;;7.82;2.17;;;;;;;13.15;100.00;98415.59;4951732;28;20043;-85
2021/12/31 10:32:29;;;;;;;6.75;2.60;;;;;;;13.24;100.00;98442.44;4948840;28;20038;-86
2021/12/31 10:35:07;;;;;;;10.10;2.40;;;;;;;13.31;100.00;98456.31;4963733;28;20061;-84
2021/12/31 10:37:44;;;;;;;10.40;2.65;;;;;;;13.24;100.00;98445.06;4961114;28;20037;-85
2021/12/31 10:40:11;;;;;;;9.25;2.10;;;;;;;13.28;100.00;98441.75;4961358;28;20027;-84
2021/12/31 10:42:40;;;;;;;13.27;2.72;;;;;;;13.19;100.00;98427.31;4949460;28;20030;-84
2021/12/31 10:45:07;;;;;;;12.57;2.55;;;;;;;13.24;100.00;98435.34;4985833;28;20118;-83
2021/12/31 10:47:38;;;;;;;9.80;2.15;;;;;;;13.25;100.00;98433.50;4951026;28;20033;-83
2021/12/31 10:50:04;;;;;;;10.27;2.63;;;;;;;13.31;100.00;98451.06;4948643;28;20093;-82
2021/12/31 10:52:58;;;;;;;7.75;2.72;;;;;;;13.34;100.00;98460.31;4948902;28;20489;-83
2021/12/31 10:55:29;;;;;;;8.98;2.55;;;;;;;13.24;100.00;98474.88;4949999;28;20035;-83
2021/12/31 10:58:04;;;;;;;10.95;2.67;;;;;;;13.32;100.00;98483.47;4950446;28;20074;-85
2021/12/31 11:00:33;;;;;;;12.00;2.92;;;;;;;13.27;100.00;98495.50;4964876;28;20066;-83
2021/12/31 11:03:00;;;;;;;12.02;2.35;;;;;;;13.21;100.00;98517.50;4948709;28;20027;-84
2021/12/31 11:05:26;;;;;;;13.07;2.80;;;;;;;13.27;100.00;98507.91;4953376;28;20134;-84
2021/12/31 11:07:53;;;;;;;9.60;2.30;;;;;;;13.17;100.00;98511.06;4948980;28;20421;-84
2021/12/31 11:10:25;;;;;;;13.30;3.10;;;;;;;13.19;100.00;98503.75;4969353;28;20189;-84
2021/12/31 11:12:52;;;;;;;12.52;2.92;;;;;;;13.23;100.00;98527.78;4947537;29;20027;-85
2021/12/31 11:15:18;;;;;;;9.80;2.88;;;;;;;13.14;100.00;98514.13;4984435;28;20048;-85
2021/12/31 11:17:44;;;;;;;11.85;3.08;;;;;;;13.21;100.00;98525.41;4964163;28;20054;-85
2021/12/31 11:20:12;;;;;;;14.95;3.10;;;;;;;13.33;100.00;98537.78;4963344;28;20035;-85
2021/12/31 11:22:39;;;;;;;13.73;2.88;;;;;;;13.42;100.00;98534.63;4962778;28;20081;-84
2021/12/31 11:25:18;;;;;;;10.20;2.63;;;;;;;13.41;100.00;98522.47;4963184;28;20382;-85